sensor_id;sensor_type;location;lat;lon;timestamp;P1;durP1;ratioP1;P2;durP2;ratioP2
46407;SDS011;32110;45.724;21.276;2022-07-23T00:02:24;21.90;;;6.63;;
46407;SDS011;32110;45.724;21.276;2022-07-23T00:04:49;13.33;;;5.17;;
46407;SDS011;32110;45.724;21.276;2022-07-23T00:07:15;15.63;;;5.50;;
46407;SDS011;32110;45.724;21.276;2022-07-23T00:09:40;15.45;;;6.25;;
46407;SDS011;32110;45.724;21.276;2022-07-23T00:12:06;20.95;;;6.15;;
46407;SDS011;32110;45.724;21.276;2022-07-23T00:14:31;21.83;;;5.60;;
46407;SDS011;32110;45.724;21.276;2022-07-23T00:16:57;20.10;;;5.45;;
46407;SDS011;32110;45.724;21.276;2022-07-23T00:19:22;12.43;;;5.53;;
46407;SDS011;32110;45.724;21.276;2022-07-23T00:21:47;16.42;;;5.25;;
46407;SDS011;32110;45.724;21.276;2022-07-23T00:24:13;18.08;;;5.43;;
46407;SDS011;32110;45.724;21.276;2022-07-23T00:26:38;15.77;;;5.50;;
46407;SDS011;32110;45.724;21.276;2022-07-23T00:29:04;20.52;;;5.07;;
46407;SDS011;32110;45.724;21.276;2022-07-23T00:31:29;14.18;;;5.18;;
46407;SDS011;32110;45.724;21.276;2022-07-23T00:33:55;17.88;;;6.50;;
46407;SDS011;32110;45.724;21.276;2022-07-23T00:36:26;19.98;;;5.05;;
46407;SDS011;32110;45.724;21.276;2022-07-23T00:38:51;12.55;;;5.15;;
46407;SDS011;32110;45.724;21.276;2022-07-23T00:41:17;17.57;;;5.77;;
46407;SDS011;32110;45.724;21.276;2022-07-23T00:43:42;17.17;;;5.18;;
46407;SDS011;32110;45.724;21.276;2022-07-23T00:46:08;16.15;;;5.60;;
46407;SDS011;32110;45.724;21.276;2022-07-23T00:48:33;20.45;;;4.78;;
46407;SDS011;32110;45.724;21.276;2022-07-23T00:50:58;12.02;;;5.30;;
46407;SDS011;32110;45.724;21.276;2022-07-23T00:53:24;18.98;;;6.32;;
46407;SDS011;32110;45.724;21.276;2022-07-23T00:55:50;17.05;;;6.05;;
46407;SDS011;32110;45.724;21.276;2022-07-23T00:58:16;16.58;;;5.20;;
46407;SDS011;32110;45.724;21.276;2022-07-23T01:00:41;17.15;;;6.07;;
46407;SDS011;32110;45.724;21.276;2022-07-23T01:03:07;14.27;;;5.18;;
46407;SDS011;32110;45.724;21.276;2022-07-23T01:05:32;19.05;;;5.60;;
46407;SDS011;32110;45.724;21.276;2022-07-23T01:07:58;15.90;;;5.13;;
46407;SDS011;32110;45.724;21.276;2022-07-23T01:10:24;31.92;;;5.15;;
46407;SDS011;32110;45.724;21.276;2022-07-23T01:12:56;19.42;;;5.72;;
46407;SDS011;32110;45.724;21.276;2022-07-23T01:15:28;19.45;;;4.75;;
46407;SDS011;32110;45.724;21.276;2022-07-23T01:17:54;14.57;;;5.35;;
46407;SDS011;32110;45.724;21.276;2022-07-23T01:20:20;14.02;;;5.35;;
46407;SDS011;32110;45.724;21.276;2022-07-23T01:22:46;18.77;;;5.90;;
46407;SDS011;32110;45.724;21.276;2022-07-23T01:25:12;17.60;;;5.38;;
46407;SDS011;32110;45.724;21.276;2022-07-23T01:27:37;17.85;;;5.32;;
46407;SDS011;32110;45.724;21.276;2022-07-23T01:30:03;14.77;;;5.25;;
46407;SDS011;32110;45.724;21.276;2022-07-23T01:32:29;14.35;;;5.45;;
46407;SDS011;32110;45.724;21.276;2022-07-23T01:34:55;15.80;;;5.45;;
46407;SDS011;32110;45.724;21.276;2022-07-23T01:37:20;21.48;;;5.93;;
46407;SDS011;32110;45.724;21.276;2022-07-23T01:39:45;15.90;;;5.05;;
46407;SDS011;32110;45.724;21.276;2022-07-23T01:42:11;25.13;;;5.63;;
46407;SDS011;32110;45.724;21.276;2022-07-23T01:44:36;20.52;;;6.20;;
46407;SDS011;32110;45.724;21.276;2022-07-23T01:47:02;15.90;;;5.20;;
46407;SDS011;32110;45.724;21.276;2022-07-23T01:49:27;13.20;;;5.45;;
46407;SDS011;32110;45.724;21.276;2022-07-23T01:51:53;12.50;;;5.40;;
46407;SDS011;32110;45.724;21.276;2022-07-23T01:54:25;18.63;;;5.40;;
46407;SDS011;32110;45.724;21.276;2022-07-23T01:56:51;18.40;;;6.35;;
46407;SDS011;32110;45.724;21.276;2022-07-23T01:59:16;15.48;;;5.82;;
46407;SDS011;32110;45.724;21.276;2022-07-23T02:01:42;14.93;;;5.45;;
46407;SDS011;32110;45.724;21.276;2022-07-23T02:04:07;17.10;;;5.68;;
46407;SDS011;32110;45.724;21.276;2022-07-23T02:06:32;21.65;;;6.07;;
46407;SDS011;32110;45.724;21.276;2022-07-23T02:08:58;18.58;;;6.07;;
46407;SDS011;32110;45.724;21.276;2022-07-23T02:11:23;22.23;;;5.70;;
46407;SDS011;32110;45.724;21.276;2022-07-23T02:13:49;16.13;;;5.85;;
46407;SDS011;32110;45.724;21.276;2022-07-23T02:16:14;15.68;;;5.72;;
46407;SDS011;32110;45.724;21.276;2022-07-23T02:18:39;19.98;;;5.82;;
46407;SDS011;32110;45.724;21.276;2022-07-23T02:21:05;19.55;;;6.05;;
46407;SDS011;32110;45.724;21.276;2022-07-23T02:23:31;16.73;;;6.25;;
46407;SDS011;32110;45.724;21.276;2022-07-23T02:25:56;21.17;;;7.10;;
46407;SDS011;32110;45.724;21.276;2022-07-23T02:28:22;19.15;;;6.35;;
46407;SDS011;32110;45.724;21.276;2022-07-23T02:30:47;19.45;;;5.90;;
46407;SDS011;32110;45.724;21.276;2022-07-23T02:33:12;12.83;;;5.63;;
46407;SDS011;32110;45.724;21.276;2022-07-23T02:35:37;16.43;;;5.33;;
46407;SDS011;32110;45.724;21.276;2022-07-23T02:38:03;11.88;;;5.10;;
46407;SDS011;32110;45.724;21.276;2022-07-23T02:40:28;11.75;;;5.55;;
46407;SDS011;32110;45.724;21.276;2022-07-23T02:42:54;14.77;;;5.63;;
46407;SDS011;32110;45.724;21.276;2022-07-23T02:45:19;9.63;;;5.30;;
46407;SDS011;32110;45.724;21.276;2022-07-23T02:47:45;10.02;;;5.20;;
46407;SDS011;32110;45.724;21.276;2022-07-23T02:50:10;20.85;;;5.63;;
46407;SDS011;32110;45.724;21.276;2022-07-23T02:52:37;15.88;;;5.85;;
46407;SDS011;32110;45.724;21.276;2022-07-23T02:55:03;13.45;;;5.28;;
46407;SDS011;32110;45.724;21.276;2022-07-23T02:57:29;10.25;;;5.15;;
46407;SDS011;32110;45.724;21.276;2022-07-23T02:59:54;10.43;;;5.28;;
46407;SDS011;32110;45.724;21.276;2022-07-23T03:02:20;15.80;;;5.65;;
46407;SDS011;32110;45.724;21.276;2022-07-23T03:04:45;16.13;;;5.63;;
46407;SDS011;32110;45.724;21.276;2022-07-23T03:07:10;10.98;;;5.45;;
46407;SDS011;32110;45.724;21.276;2022-07-23T03:09:36;11.00;;;5.35;;
46407;SDS011;32110;45.724;21.276;2022-07-23T03:12:01;12.85;;;5.57;;
46407;SDS011;32110;45.724;21.276;2022-07-23T03:14:27;12.38;;;5.53;;
46407;SDS011;32110;45.724;21.276;2022-07-23T03:16:52;15.68;;;5.15;;
46407;SDS011;32110;45.724;21.276;2022-07-23T03:19:19;11.13;;;5.57;;
46407;SDS011;32110;45.724;21.276;2022-07-23T03:21:45;11.55;;;5.30;;
46407;SDS011;32110;45.724;21.276;2022-07-23T03:24:10;14.15;;;5.65;;
46407;SDS011;32110;45.724;21.276;2022-07-23T03:26:36;14.65;;;5.95;;
46407;SDS011;32110;45.724;21.276;2022-07-23T03:29:02;12.65;;;5.50;;
46407;SDS011;32110;45.724;21.276;2022-07-23T03:31:28;15.02;;;5.47;;
46407;SDS011;32110;45.724;21.276;2022-07-23T03:33:56;15.60;;;5.50;;
46407;SDS011;32110;45.724;21.276;2022-07-23T03:36:21;13.98;;;5.20;;
46407;SDS011;32110;45.724;21.276;2022-07-23T03:38:47;10.85;;;5.50;;
46407;SDS011;32110;45.724;21.276;2022-07-23T03:41:12;15.63;;;5.57;;
46407;SDS011;32110;45.724;21.276;2022-07-23T03:43:38;14.25;;;6.00;;
46407;SDS011;32110;45.724;21.276;2022-07-23T03:46:03;13.10;;;5.70;;
46407;SDS011;32110;45.724;21.276;2022-07-23T03:48:28;16.58;;;5.40;;
46407;SDS011;32110;45.724;21.276;2022-07-23T03:50:54;26.75;;;6.38;;
46407;SDS011;32110;45.724;21.276;2022-07-23T03:53:19;12.90;;;5.85;;
46407;SDS011;32110;45.724;21.276;2022-07-23T03:55:45;21.00;;;6.43;;
46407;SDS011;32110;45.724;21.276;2022-07-23T03:58:10;15.55;;;5.35;;
46407;SDS011;32110;45.724;21.276;2022-07-23T04:00:35;20.17;;;6.15;;
46407;SDS011;32110;45.724;21.276;2022-07-23T04:03:01;14.35;;;5.28;;
46407;SDS011;32110;45.724;21.276;2022-07-23T04:05:27;11.32;;;5.70;;
46407;SDS011;32110;45.724;21.276;2022-07-23T04:07:52;21.75;;;6.00;;
46407;SDS011;32110;45.724;21.276;2022-07-23T04:10:17;16.85;;;6.07;;
46407;SDS011;32110;45.724;21.276;2022-07-23T04:12:43;19.77;;;5.82;;
46407;SDS011;32110;45.724;21.276;2022-07-23T04:15:08;16.83;;;5.73;;
46407;SDS011;32110;45.724;21.276;2022-07-23T04:17:34;18.77;;;6.22;;
46407;SDS011;32110;45.724;21.276;2022-07-23T04:19:59;18.48;;;5.78;;
46407;SDS011;32110;45.724;21.276;2022-07-23T04:22:25;19.30;;;5.40;;
46407;SDS011;32110;45.724;21.276;2022-07-23T04:24:50;17.77;;;5.20;;
46407;SDS011;32110;45.724;21.276;2022-07-23T04:27:16;16.47;;;5.27;;
46407;SDS011;32110;45.724;21.276;2022-07-23T04:29:41;14.98;;;5.57;;
46407;SDS011;32110;45.724;21.276;2022-07-23T04:32:06;19.40;;;5.30;;
46407;SDS011;32110;45.724;21.276;2022-07-23T04:34:32;13.98;;;6.00;;
46407;SDS011;32110;45.724;21.276;2022-07-23T04:36:57;11.70;;;5.18;;
46407;SDS011;32110;45.724;21.276;2022-07-23T04:39:22;10.60;;;5.20;;
46407;SDS011;32110;45.724;21.276;2022-07-23T04:41:48;16.55;;;5.13;;
46407;SDS011;32110;45.724;21.276;2022-07-23T04:44:13;18.48;;;5.35;;
46407;SDS011;32110;45.724;21.276;2022-07-23T04:46:39;15.45;;;5.22;;
46407;SDS011;32110;45.724;21.276;2022-07-23T04:49:04;15.85;;;5.28;;
46407;SDS011;32110;45.724;21.276;2022-07-23T04:51:30;14.70;;;5.18;;
46407;SDS011;32110;45.724;21.276;2022-07-23T04:53:55;16.00;;;5.30;;
46407;SDS011;32110;45.724;21.276;2022-07-23T04:56:21;15.02;;;5.60;;
46407;SDS011;32110;45.724;21.276;2022-07-23T04:58:46;11.18;;;4.72;;
46407;SDS011;32110;45.724;21.276;2022-07-23T05:01:12;12.82;;;5.45;;
46407;SDS011;32110;45.724;21.276;2022-07-23T05:03:37;17.52;;;6.13;;
46407;SDS011;32110;45.724;21.276;2022-07-23T05:06:03;17.02;;;5.60;;
46407;SDS011;32110;45.724;21.276;2022-07-23T05:08:28;11.27;;;5.60;;
46407;SDS011;32110;45.724;21.276;2022-07-23T05:10:54;18.77;;;5.70;;
46407;SDS011;32110;45.724;21.276;2022-07-23T05:13:19;14.32;;;5.85;;
46407;SDS011;32110;45.724;21.276;2022-07-23T05:15:45;14.88;;;6.18;;
46407;SDS011;32110;45.724;21.276;2022-07-23T05:18:11;18.42;;;5.60;;
46407;SDS011;32110;45.724;21.276;2022-07-23T05:20:36;15.02;;;5.10;;
46407;SDS011;32110;45.724;21.276;2022-07-23T05:23:02;11.45;;;5.10;;
46407;SDS011;32110;45.724;21.276;2022-07-23T05:25:28;15.63;;;5.20;;
46407;SDS011;32110;45.724;21.276;2022-07-23T05:27:53;16.55;;;5.10;;
46407;SDS011;32110;45.724;21.276;2022-07-23T05:30:19;9.30;;;4.75;;
46407;SDS011;32110;45.724;21.276;2022-07-23T05:32:44;12.18;;;5.38;;
46407;SDS011;32110;45.724;21.276;2022-07-23T05:35:10;17.77;;;5.43;;
46407;SDS011;32110;45.724;21.276;2022-07-23T05:37:36;13.77;;;5.45;;
46407;SDS011;32110;45.724;21.276;2022-07-23T05:40:05;13.75;;;4.90;;
46407;SDS011;32110;45.724;21.276;2022-07-23T05:42:32;9.48;;;5.97;;
46407;SDS011;32110;45.724;21.276;2022-07-23T05:44:58;15.93;;;5.13;;
46407;SDS011;32110;45.724;21.276;2022-07-23T05:47:24;17.70;;;5.20;;
46407;SDS011;32110;45.724;21.276;2022-07-23T05:49:49;21.30;;;5.57;;
46407;SDS011;32110;45.724;21.276;2022-07-23T05:52:14;15.75;;;5.38;;
46407;SDS011;32110;45.724;21.276;2022-07-23T05:54:40;13.77;;;5.72;;
46407;SDS011;32110;45.724;21.276;2022-07-23T05:57:06;13.82;;;5.53;;
46407;SDS011;32110;45.724;21.276;2022-07-23T05:59:32;16.70;;;5.35;;
46407;SDS011;32110;45.724;21.276;2022-07-23T06:01:57;15.68;;;5.05;;
46407;SDS011;32110;45.724;21.276;2022-07-23T06:04:23;15.70;;;5.20;;
46407;SDS011;32110;45.724;21.276;2022-07-23T06:06:48;15.27;;;5.72;;
46407;SDS011;32110;45.724;21.276;2022-07-23T06:09:13;10.97;;;5.00;;
46407;SDS011;32110;45.724;21.276;2022-07-23T06:11:39;11.55;;;4.93;;
46407;SDS011;32110;45.724;21.276;2022-07-23T06:14:05;11.90;;;5.35;;
46407;SDS011;32110;45.724;21.276;2022-07-23T06:16:31;12.55;;;5.20;;
46407;SDS011;32110;45.724;21.276;2022-07-23T06:18:56;13.73;;;5.40;;
46407;SDS011;32110;45.724;21.276;2022-07-23T06:21:21;8.55;;;5.00;;
46407;SDS011;32110;45.724;21.276;2022-07-23T06:23:47;17.52;;;5.03;;
46407;SDS011;32110;45.724;21.276;2022-07-23T06:26:12;15.65;;;5.05;;
46407;SDS011;32110;45.724;21.276;2022-07-23T06:28:38;12.73;;;5.40;;
46407;SDS011;32110;45.724;21.276;2022-07-23T06:31:03;15.73;;;5.38;;
46407;SDS011;32110;45.724;21.276;2022-07-23T06:33:28;11.40;;;5.38;;
46407;SDS011;32110;45.724;21.276;2022-07-23T06:35:54;13.40;;;5.47;;
46407;SDS011;32110;45.724;21.276;2022-07-23T06:38:19;9.02;;;4.60;;
46407;SDS011;32110;45.724;21.276;2022-07-23T06:40:45;7.68;;;5.03;;
46407;SDS011;32110;45.724;21.276;2022-07-23T06:43:10;11.43;;;4.80;;
46407;SDS011;32110;45.724;21.276;2022-07-23T06:45:36;12.18;;;4.85;;
46407;SDS011;32110;45.724;21.276;2022-07-23T06:48:01;8.77;;;5.10;;
46407;SDS011;32110;45.724;21.276;2022-07-23T06:50:28;11.85;;;5.13;;
46407;SDS011;32110;45.724;21.276;2022-07-23T06:52:53;11.98;;;5.57;;
46407;SDS011;32110;45.724;21.276;2022-07-23T06:55:19;14.88;;;5.70;;
46407;SDS011;32110;45.724;21.276;2022-07-23T06:57:44;13.65;;;5.15;;
46407;SDS011;32110;45.724;21.276;2022-07-23T07:00:10;9.07;;;5.47;;
46407;SDS011;32110;45.724;21.276;2022-07-23T07:02:36;11.13;;;5.82;;
46407;SDS011;32110;45.724;21.276;2022-07-23T07:05:01;22.02;;;5.55;;
46407;SDS011;32110;45.724;21.276;2022-07-23T07:07:27;10.07;;;5.07;;
46407;SDS011;32110;45.724;21.276;2022-07-23T07:09:53;11.15;;;5.43;;
46407;SDS011;32110;45.724;21.276;2022-07-23T07:12:18;10.38;;;5.43;;
46407;SDS011;32110;45.724;21.276;2022-07-23T07:14:44;13.20;;;5.47;;
46407;SDS011;32110;45.724;21.276;2022-07-23T07:17:09;10.75;;;5.30;;
46407;SDS011;32110;45.724;21.276;2022-07-23T07:19:36;8.93;;;5.05;;
46407;SDS011;32110;45.724;21.276;2022-07-23T07:22:02;16.20;;;5.72;;
46407;SDS011;32110;45.724;21.276;2022-07-23T07:24:27;13.45;;;5.40;;
46407;SDS011;32110;45.724;21.276;2022-07-23T07:26:52;13.30;;;5.53;;
46407;SDS011;32110;45.724;21.276;2022-07-23T07:29:18;12.35;;;5.50;;
46407;SDS011;32110;45.724;21.276;2022-07-23T07:31:43;9.25;;;4.97;;
46407;SDS011;32110;45.724;21.276;2022-07-23T07:34:09;10.65;;;5.18;;
46407;SDS011;32110;45.724;21.276;2022-07-23T07:36:34;17.10;;;5.45;;
46407;SDS011;32110;45.724;21.276;2022-07-23T07:39:02;13.10;;;5.53;;
46407;SDS011;32110;45.724;21.276;2022-07-23T07:41:29;13.70;;;5.75;;
46407;SDS011;32110;45.724;21.276;2022-07-23T07:43:55;9.93;;;4.70;;
46407;SDS011;32110;45.724;21.276;2022-07-23T07:46:20;11.80;;;4.97;;
46407;SDS011;32110;45.724;21.276;2022-07-23T07:48:49;14.15;;;4.80;;
46407;SDS011;32110;45.724;21.276;2022-07-23T07:51:14;11.88;;;4.88;;
46407;SDS011;32110;45.724;21.276;2022-07-23T07:53:40;16.98;;;4.82;;
46407;SDS011;32110;45.724;21.276;2022-07-23T07:56:05;13.05;;;5.03;;
46407;SDS011;32110;45.724;21.276;2022-07-23T07:58:31;11.55;;;4.80;;
46407;SDS011;32110;45.724;21.276;2022-07-23T08:00:56;9.60;;;4.80;;
46407;SDS011;32110;45.724;21.276;2022-07-23T08:03:22;11.10;;;4.85;;
46407;SDS011;32110;45.724;21.276;2022-07-23T08:05:47;14.27;;;4.82;;
46407;SDS011;32110;45.724;21.276;2022-07-23T08:08:13;23.20;;;5.55;;
46407;SDS011;32110;45.724;21.276;2022-07-23T08:10:41;11.18;;;5.22;;
46407;SDS011;32110;45.724;21.276;2022-07-23T08:13:11;12.30;;;5.18;;
46407;SDS011;32110;45.724;21.276;2022-07-23T08:15:41;10.30;;;5.00;;
46407;SDS011;32110;45.724;21.276;2022-07-23T08:18:07;10.45;;;4.80;;
46407;SDS011;32110;45.724;21.276;2022-07-23T08:20:32;26.08;;;5.35;;
46407;SDS011;32110;45.724;21.276;2022-07-23T08:22:59;13.52;;;5.57;;
46407;SDS011;32110;45.724;21.276;2022-07-23T08:25:32;15.27;;;5.07;;
46407;SDS011;32110;45.724;21.276;2022-07-23T08:28:00;9.93;;;4.68;;
46407;SDS011;32110;45.724;21.276;2022-07-23T08:30:27;11.50;;;4.72;;
46407;SDS011;32110;45.724;21.276;2022-07-23T08:32:55;12.18;;;5.05;;
46407;SDS011;32110;45.724;21.276;2022-07-23T08:35:41;12.60;;;4.78;;
46407;SDS011;32110;45.724;21.276;2022-07-23T08:38:10;12.52;;;5.13;;
46407;SDS011;32110;45.724;21.276;2022-07-23T08:40:41;13.07;;;4.38;;
46407;SDS011;32110;45.724;21.276;2022-07-23T08:43:11;7.65;;;4.53;;
46407;SDS011;32110;45.724;21.276;2022-07-23T08:45:42;10.77;;;4.83;;
46407;SDS011;32110;45.724;21.276;2022-07-23T08:48:13;20.42;;;4.72;;
46407;SDS011;32110;45.724;21.276;2022-07-23T08:50:44;15.25;;;4.68;;
46407;SDS011;32110;45.724;21.276;2022-07-23T08:53:14;9.02;;;4.43;;
46407;SDS011;32110;45.724;21.276;2022-07-23T08:55:45;10.63;;;4.80;;
46407;SDS011;32110;45.724;21.276;2022-07-23T08:58:11;12.15;;;5.22;;
46407;SDS011;32110;45.724;21.276;2022-07-23T09:00:37;14.32;;;4.78;;
46407;SDS011;32110;45.724;21.276;2022-07-23T09:03:03;13.70;;;4.40;;
46407;SDS011;32110;45.724;21.276;2022-07-23T09:05:28;12.40;;;4.63;;
46407;SDS011;32110;45.724;21.276;2022-07-23T09:10:28;8.43;;;5.00;;
46407;SDS011;32110;45.724;21.276;2022-07-23T09:12:53;12.50;;;4.93;;
46407;SDS011;32110;45.724;21.276;2022-07-23T09:15:19;12.32;;;4.00;;
46407;SDS011;32110;45.724;21.276;2022-07-23T09:17:44;8.60;;;4.20;;
46407;SDS011;32110;45.724;21.276;2022-07-23T09:20:14;7.28;;;4.20;;
46407;SDS011;32110;45.724;21.276;2022-07-23T09:22:44;8.70;;;3.90;;
46407;SDS011;32110;45.724;21.276;2022-07-23T09:25:12;13.18;;;4.03;;
46407;SDS011;32110;45.724;21.276;2022-07-23T09:27:56;10.40;;;3.90;;
46407;SDS011;32110;45.724;21.276;2022-07-23T09:30:28;10.13;;;3.57;;
46407;SDS011;32110;45.724;21.276;2022-07-23T09:35:49;8.15;;;2.88;;
46407;SDS011;32110;45.724;21.276;2022-07-23T09:38:17;9.45;;;3.58;;
46407;SDS011;32110;45.724;21.276;2022-07-23T09:40:44;10.32;;;3.97;;
46407;SDS011;32110;45.724;21.276;2022-07-23T09:43:11;9.55;;;3.97;;
46407;SDS011;32110;45.724;21.276;2022-07-23T09:45:37;11.75;;;3.60;;
46407;SDS011;32110;45.724;21.276;2022-07-23T09:48:11;10.20;;;3.55;;
46407;SDS011;32110;45.724;21.276;2022-07-23T09:50:39;11.85;;;3.90;;
46407;SDS011;32110;45.724;21.276;2022-07-23T09:53:05;9.85;;;3.47;;
46407;SDS011;32110;45.724;21.276;2022-07-23T09:55:32;14.77;;;4.38;;
46407;SDS011;32110;45.724;21.276;2022-07-23T09:58:03;8.65;;;3.95;;
46407;SDS011;32110;45.724;21.276;2022-07-23T10:00:31;8.55;;;3.50;;
46407;SDS011;32110;45.724;21.276;2022-07-23T10:02:57;8.20;;;3.55;;
46407;SDS011;32110;45.724;21.276;2022-07-23T10:05:24;8.93;;;3.35;;
46407;SDS011;32110;45.724;21.276;2022-07-23T10:07:51;9.65;;;3.55;;
46407;SDS011;32110;45.724;21.276;2022-07-23T10:10:17;8.40;;;3.30;;
46407;SDS011;32110;45.724;21.276;2022-07-23T10:12:46;7.38;;;3.35;;
46407;SDS011;32110;45.724;21.276;2022-07-23T10:15:12;12.63;;;3.72;;
46407;SDS011;32110;45.724;21.276;2022-07-23T10:17:37;7.95;;;3.40;;
46407;SDS011;32110;45.724;21.276;2022-07-23T10:20:03;10.10;;;3.53;;
46407;SDS011;32110;45.724;21.276;2022-07-23T10:33:02;17.85;;;3.47;;
46407;SDS011;32110;45.724;21.276;2022-07-23T10:35:38;9.82;;;3.35;;
46407;SDS011;32110;45.724;21.276;2022-07-23T10:40:34;5.40;;;3.03;;
46407;SDS011;32110;45.724;21.276;2022-07-23T10:43:00;8.43;;;3.10;;
46407;SDS011;32110;45.724;21.276;2022-07-23T10:45:32;9.18;;;3.40;;
46407;SDS011;32110;45.724;21.276;2022-07-23T10:48:12;9.05;;;3.67;;
46407;SDS011;32110;45.724;21.276;2022-07-23T10:50:42;10.43;;;3.90;;
46407;SDS011;32110;45.724;21.276;2022-07-23T10:55:44;6.78;;;3.17;;
46407;SDS011;32110;45.724;21.276;2022-07-23T10:58:10;8.65;;;3.30;;
46407;SDS011;32110;45.724;21.276;2022-07-23T11:00:36;11.38;;;3.20;;
46407;SDS011;32110;45.724;21.276;2022-07-23T11:03:03;9.48;;;3.17;;
46407;SDS011;32110;45.724;21.276;2022-07-23T11:05:40;8.88;;;3.80;;
46407;SDS011;32110;45.724;21.276;2022-07-23T11:10:36;7.90;;;3.40;;
46407;SDS011;32110;45.724;21.276;2022-07-23T11:37:09;8.77;;;3.30;;
46407;SDS011;32110;45.724;21.276;2022-07-23T11:39:36;10.18;;;3.47;;
46407;SDS011;32110;45.724;21.276;2022-07-23T11:42:04;9.43;;;3.15;;
46407;SDS011;32110;45.724;21.276;2022-07-23T11:44:31;9.80;;;3.45;;
46407;SDS011;32110;45.724;21.276;2022-07-23T11:46:59;10.63;;;3.83;;
46407;SDS011;32110;45.724;21.276;2022-07-23T11:49:27;12.52;;;3.50;;
46407;SDS011;32110;45.724;21.276;2022-07-23T11:52:09;6.97;;;3.60;;
46407;SDS011;32110;45.724;21.276;2022-07-23T11:54:37;11.30;;;3.53;;
46407;SDS011;32110;45.724;21.276;2022-07-23T11:57:14;11.18;;;4.35;;
46407;SDS011;32110;45.724;21.276;2022-07-23T11:59:40;10.82;;;3.42;;
46407;SDS011;32110;45.724;21.276;2022-07-23T12:02:07;8.30;;;3.25;;
46407;SDS011;32110;45.724;21.276;2022-07-23T12:04:43;16.08;;;3.95;;
46407;SDS011;32110;45.724;21.276;2022-07-23T12:09:54;8.27;;;3.28;;
46407;SDS011;32110;45.724;21.276;2022-07-23T12:12:20;9.48;;;3.80;;
46407;SDS011;32110;45.724;21.276;2022-07-23T12:14:56;9.32;;;3.65;;
46407;SDS011;32110;45.724;21.276;2022-07-23T12:17:30;6.60;;;3.63;;
46407;SDS011;32110;45.724;21.276;2022-07-23T12:19:58;9.30;;;3.80;;
46407;SDS011;32110;45.724;21.276;2022-07-23T12:22:26;9.52;;;3.45;;
46407;SDS011;32110;45.724;21.276;2022-07-23T12:25:03;7.85;;;4.03;;
46407;SDS011;32110;45.724;21.276;2022-07-23T12:27:31;7.65;;;3.30;;
46407;SDS011;32110;45.724;21.276;2022-07-23T12:29:57;10.23;;;3.58;;
46407;SDS011;32110;45.724;21.276;2022-07-23T12:32:24;8.60;;;3.60;;
46407;SDS011;32110;45.724;21.276;2022-07-23T12:35:02;10.93;;;4.15;;
46407;SDS011;32110;45.724;21.276;2022-07-23T12:37:31;7.65;;;3.50;;
46407;SDS011;32110;45.724;21.276;2022-07-23T12:39:58;14.30;;;3.45;;
46407;SDS011;32110;45.724;21.276;2022-07-23T12:42:42;7.55;;;3.88;;
46407;SDS011;32110;45.724;21.276;2022-07-23T12:45:09;10.13;;;3.40;;
46407;SDS011;32110;45.724;21.276;2022-07-23T12:53:15;8.60;;;3.50;;
46407;SDS011;32110;45.724;21.276;2022-07-23T12:55:43;10.15;;;3.70;;
46407;SDS011;32110;45.724;21.276;2022-07-23T12:58:12;13.30;;;3.53;;
46407;SDS011;32110;45.724;21.276;2022-07-23T13:00:55;8.80;;;3.97;;
46407;SDS011;32110;45.724;21.276;2022-07-23T13:03:24;8.60;;;3.60;;
46407;SDS011;32110;45.724;21.276;2022-07-23T13:05:51;9.13;;;3.42;;
46407;SDS011;32110;45.724;21.276;2022-07-23T13:08:17;9.68;;;3.47;;
46407;SDS011;32110;45.724;21.276;2022-07-23T13:10:43;9.55;;;3.70;;
46407;SDS011;32110;45.724;21.276;2022-07-23T13:13:11;14.95;;;3.50;;
46407;SDS011;32110;45.724;21.276;2022-07-23T13:15:38;11.90;;;4.22;;
46407;SDS011;32110;45.724;21.276;2022-07-23T13:18:03;7.70;;;3.55;;
46407;SDS011;32110;45.724;21.276;2022-07-23T13:20:29;11.68;;;3.47;;
46407;SDS011;32110;45.724;21.276;2022-07-23T13:22:56;9.65;;;3.60;;
46407;SDS011;32110;45.724;21.276;2022-07-23T13:25:22;10.23;;;3.42;;
46407;SDS011;32110;45.724;21.276;2022-07-23T13:27:48;7.53;;;3.25;;
46407;SDS011;32110;45.724;21.276;2022-07-23T13:30:13;7.60;;;3.83;;
46407;SDS011;32110;45.724;21.276;2022-07-23T13:32:40;9.70;;;3.53;;
46407;SDS011;32110;45.724;21.276;2022-07-23T13:35:05;8.55;;;3.28;;
46407;SDS011;32110;45.724;21.276;2022-07-23T13:37:31;8.73;;;3.97;;
46407;SDS011;32110;45.724;21.276;2022-07-23T13:39:56;11.07;;;3.28;;
46407;SDS011;32110;45.724;21.276;2022-07-23T13:42:22;11.27;;;3.50;;
46407;SDS011;32110;45.724;21.276;2022-07-23T13:44:47;7.65;;;3.40;;
46407;SDS011;32110;45.724;21.276;2022-07-23T13:47:13;10.73;;;3.30;;
46407;SDS011;32110;45.724;21.276;2022-07-23T13:49:38;9.20;;;3.17;;
46407;SDS011;32110;45.724;21.276;2022-07-23T13:52:04;8.20;;;3.85;;
46407;SDS011;32110;45.724;21.276;2022-07-23T13:54:29;14.02;;;3.53;;
46407;SDS011;32110;45.724;21.276;2022-07-23T13:56:55;8.43;;;3.28;;
46407;SDS011;32110;45.724;21.276;2022-07-23T13:59:21;9.68;;;3.80;;
46407;SDS011;32110;45.724;21.276;2022-07-23T14:01:46;8.32;;;3.33;;
46407;SDS011;32110;45.724;21.276;2022-07-23T14:04:12;9.07;;;3.30;;
46407;SDS011;32110;45.724;21.276;2022-07-23T14:06:37;10.07;;;3.63;;
46407;SDS011;32110;45.724;21.276;2022-07-23T14:09:03;13.57;;;3.42;;
46407;SDS011;32110;45.724;21.276;2022-07-23T14:11:28;10.38;;;3.78;;
46407;SDS011;32110;45.724;21.276;2022-07-23T14:13:55;9.38;;;3.00;;
46407;SDS011;32110;45.724;21.276;2022-07-23T14:16:21;6.88;;;3.55;;
46407;SDS011;32110;45.724;21.276;2022-07-23T14:18:47;9.15;;;3.50;;
46407;SDS011;32110;45.724;21.276;2022-07-23T14:21:13;7.38;;;3.03;;
46407;SDS011;32110;45.724;21.276;2022-07-23T14:23:38;9.40;;;3.28;;
46407;SDS011;32110;45.724;21.276;2022-07-23T14:26:04;10.40;;;3.45;;
46407;SDS011;32110;45.724;21.276;2022-07-23T14:28:29;8.73;;;3.03;;
46407;SDS011;32110;45.724;21.276;2022-07-23T14:30:57;9.40;;;3.33;;
46407;SDS011;32110;45.724;21.276;2022-07-23T14:33:22;9.20;;;3.90;;
46407;SDS011;32110;45.724;21.276;2022-07-23T14:35:47;12.07;;;3.50;;
46407;SDS011;32110;45.724;21.276;2022-07-23T14:38:13;7.05;;;3.00;;
46407;SDS011;32110;45.724;21.276;2022-07-23T14:40:38;7.07;;;3.38;;
46407;SDS011;32110;45.724;21.276;2022-07-23T14:43:04;9.57;;;3.40;;
46407;SDS011;32110;45.724;21.276;2022-07-23T14:45:29;7.93;;;3.40;;
46407;SDS011;32110;45.724;21.276;2022-07-23T14:47:55;9.02;;;3.28;;
46407;SDS011;32110;45.724;21.276;2022-07-23T14:50:20;9.50;;;3.28;;
46407;SDS011;32110;45.724;21.276;2022-07-23T14:52:46;8.55;;;3.10;;
46407;SDS011;32110;45.724;21.276;2022-07-23T14:55:11;10.98;;;3.88;;
46407;SDS011;32110;45.724;21.276;2022-07-23T14:57:37;7.68;;;3.10;;
46407;SDS011;32110;45.724;21.276;2022-07-23T15:00:05;10.48;;;2.75;;
46407;SDS011;32110;45.724;21.276;2022-07-23T15:02:31;8.60;;;2.78;;
46407;SDS011;32110;45.724;21.276;2022-07-23T15:04:57;5.95;;;3.22;;
46407;SDS011;32110;45.724;21.276;2022-07-23T15:07:26;5.55;;;3.08;;
46407;SDS011;32110;45.724;21.276;2022-07-23T15:09:52;8.65;;;3.58;;
46407;SDS011;32110;45.724;21.276;2022-07-23T15:12:17;6.47;;;3.00;;
46407;SDS011;32110;45.724;21.276;2022-07-23T15:14:43;10.60;;;3.00;;
46407;SDS011;32110;45.724;21.276;2022-07-23T15:17:08;6.88;;;3.15;;
46407;SDS011;32110;45.724;21.276;2022-07-23T15:19:34;8.00;;;3.47;;